Terminal Aerodrome Forecast
Issued by NWS Wichita, KS

Home | Current Version | Previous Version | Text Only | Print | Product List | Glossary Off
Versions: 1 2 3 4 5 6 7 8 9 10 11 12 13 14 15 16 17 18

000
FTUS43 KICT 291230 AAA
TAFICT
TAF AMD
KICT 291230Z 2913/3012 36007KT P6SM SCT025
     FM291800 02010KT P6SM SCT035
     FM301000 01006KT 3SM BR BKN015=

USA.gov is the U.S. government's official web portal to all federal, state and local government web resources and services.